Time;durP1;ratioP1;P1;durP2;ratioP2;P2;SDS_P1;SDS_P2;PMS_P1;PMS_P2;Temp;Humidity;BMP_temperature;BMP_pressure;BME280_temperature;BME280_humidity;BME280_pressure;Samples;Min_cycle;Max_cycle;Signal;HPM_P1;HPM_P2
2022/11/16 00:01:19;;;;;;;23.43;21.30;;;11.60;99.90;;;;;;5114086;27;20552;-68
2022/11/16 00:03:48;;;;;;;23.07;21.17;;;11.50;99.90;;;;;;5123541;27;21054;-68
2022/11/16 00:06:15;;;;;;;23.47;20.30;;;11.50;99.90;;;;;;5112803;27;20468;-68
2022/11/16 00:09:20;;;;;;;22.73;20.50;;;11.50;99.90;;;;;;5117434;27;20452;-68
2022/11/16 00:11:33;;;;;;;21.37;19.57;;;11.50;99.90;;;;;;5114519;27;20478;-69
2022/11/16 00:14:00;;;;;;;22.33;20.17;;;11.50;99.90;;;;;;5124094;27;20476;-70
2022/11/16 00:16:28;;;;;;;23.83;19.73;;;11.50;99.90;;;;;;5117617;27;21195;-69
2022/11/16 00:18:56;;;;;;;21.67;19.10;;;11.50;99.90;;;;;;5124643;27;20533;-68
2022/11/16 00:21:24;;;;;;;19.33;17.63;;;11.50;99.90;;;;;;5120273;27;20448;-70
2022/11/16 00:23:53;;;;;;;23.80;20.20;;;11.50;99.90;;;;;;5120387;27;20468;-69
2022/11/16 00:26:21;;;;;;;20.03;18.30;;;11.50;99.90;;;;;;5120698;27;20463;-70
2022/11/16 00:28:49;;;;;;;20.13;18.30;;;11.40;99.90;;;;;;5127582;27;20465;-68
2022/11/16 00:31:16;;;;;;;23.93;18.27;;;11.50;99.90;;;;;;5113030;27;20547;-68
2022/11/16 00:33:43;;;;;;;21.23;18.63;;;11.50;99.90;;;;;;5118018;27;20483;-68
2022/11/16 00:36:11;;;;;;;19.40;17.97;;;11.50;99.90;;;;;;5120747;27;20469;-69
2022/11/16 00:38:38;;;;;;;20.57;18.33;;;11.50;99.90;;;;;;5121734;27;20483;-69
2022/11/16 00:41:07;;;;;;;28.07;17.40;;;11.50;99.90;;;;;;5119681;27;20558;-68
2022/11/16 00:43:34;;;;;;;17.90;16.10;;;11.50;99.90;;;;;;5116562;27;20461;-70
2022/11/16 00:46:01;;;;;;;22.87;18.07;;;11.50;99.90;;;;;;5126439;27;20463;-69
2022/11/16 00:48:28;;;;;;;22.63;17.83;;;11.50;99.90;;;;;;5118972;27;20464;-69
2022/11/16 00:50:55;;;;;;;19.70;17.73;;;11.50;99.90;;;;;;5121059;27;20487;-69
2022/11/16 00:53:22;;;;;;;19.43;16.70;;;11.50;99.90;;;;;;5114877;27;20568;-69
2022/11/16 00:55:50;;;;;;;28.53;17.37;;;11.50;99.90;;;;;;5120871;27;20571;-69
2022/11/16 00:58:19;;;;;;;17.37;15.80;;;11.60;99.90;;;;;;5119988;27;21037;-69
2022/11/16 01:00:46;;;;;;;17.53;15.97;;;11.60;99.90;;;;;;5114121;27;20492;-69
2022/11/16 01:03:12;;;;;;;17.03;15.10;;;11.50;99.90;;;;;;5113650;27;20459;-68
2022/11/16 01:05:40;;;;;;;16.80;15.50;;;11.50;99.90;;;;;;5123783;27;20477;-68
2022/11/16 01:08:07;;;;;;;23.47;15.57;;;11.50;99.90;;;;;;5120170;27;20472;-69
2022/11/16 01:10:34;;;;;;;16.67;15.40;;;11.50;99.90;;;;;;5118458;27;20465;-70
2022/11/16 01:13:00;;;;;;;17.30;15.90;;;11.40;99.90;;;;;;5117357;27;20467;-69
2022/11/16 01:15:28;;;;;;;16.90;15.33;;;11.50;99.90;;;;;;5113645;27;20732;-69
2022/11/16 01:17:56;;;;;;;15.83;14.73;;;11.50;99.90;;;;;;5118112;27;20194;-69
2022/11/16 01:20:26;;;;;;;17.23;15.83;;;11.50;99.90;;;;;;5123295;27;20466;-69
2022/11/16 01:22:53;;;;;;;17.33;16.07;;;11.50;99.90;;;;;;5121157;27;20468;-70
2022/11/16 01:25:21;;;;;;;17.40;16.10;;;11.50;99.90;;;;;;5123153;27;20467;-70
2022/11/16 01:27:48;;;;;;;17.13;15.73;;;11.40;99.90;;;;;;5113042;27;20899;-69
2022/11/16 01:30:16;;;;;;;17.17;15.87;;;11.40;99.90;;;;;;5115186;27;20472;-70
2022/11/16 01:32:44;;;;;;;17.23;15.80;;;11.40;99.90;;;;;;5104195;27;20457;-69
2022/11/16 01:35:18;;;;;;;18.60;15.80;;;11.40;99.90;;;;;;5124429;27;20448;-70
2022/11/16 01:37:45;;;;;;;16.80;15.50;;;11.40;99.90;;;;;;5120607;27;20456;-69
2022/11/16 01:40:13;;;;;;;16.87;15.30;;;11.30;99.90;;;;;;5122660;27;21290;-70
2022/11/16 01:42:40;;;;;;;17.17;15.57;;;11.30;99.90;;;;;;5115314;27;20544;-68
2022/11/16 01:45:18;;;;;;;17.47;15.90;;;11.40;99.90;;;;;;5119301;27;20465;-69
2022/11/16 01:47:47;;;;;;;16.20;14.90;;;11.30;99.90;;;;;;5116291;27;20460;-70
2022/11/16 01:50:17;;;;;;;16.83;15.43;;;11.30;99.90;;;;;;5114448;27;20983;-68
2022/11/16 01:52:49;;;;;;;21.63;14.77;;;11.40;99.90;;;;;;5121194;27;20444;-69
2022/11/16 01:55:16;;;;;;;15.67;14.13;;;11.50;99.90;;;;;;5113752;27;20811;-70
2022/11/16 01:57:45;;;;;;;16.50;15.10;;;11.50;99.90;;;;;;5118890;27;21007;-69
2022/11/16 02:00:14;;;;;;;16.90;15.60;;;11.50;99.90;;;;;;5123382;27;21343;-68
2022/11/16 02:02:42;;;;;;;16.70;15.60;;;11.50;99.90;;;;;;5101329;27;20461;-69
2022/11/16 02:05:12;;;;;;;16.70;15.43;;;11.50;99.90;;;;;;5110702;27;20469;-70
2022/11/16 02:11:04;;;;;;;17.20;15.80;;;11.50;99.90;;;;;;5116584;27;20973;-69
2022/11/16 02:13:41;;;;;;;16.93;15.63;;;11.40;99.90;;;;;;5123022;27;20460;-68
2022/11/16 02:16:19;;;;;;;16.27;15.17;;;11.40;99.90;;;;;;5119315;27;20486;-69
2022/11/16 02:18:54;;;;;;;17.67;16.37;;;11.40;99.90;;;;;;5115012;27;20825;-70
2022/11/16 02:21:39;;;;;;;18.37;16.97;;;11.30;99.90;;;;;;5114427;27;20457;-70
2022/11/16 02:24:35;;;;;;;17.77;16.47;;;11.30;99.90;;;;;;5119754;27;20472;-69
2022/11/16 02:27:36;;;;;;;19.00;17.60;;;11.40;99.90;;;;;;5119710;27;20459;-70
2022/11/16 02:30:05;;;;;;;17.60;16.30;;;11.40;99.90;;;;;;5112110;27;20464;-69
2022/11/16 02:32:36;;;;;;;18.33;16.73;;;11.30;99.90;;;;;;5109992;27;20464;-70
2022/11/16 02:35:07;;;;;;;17.07;15.70;;;11.30;99.90;;;;;;5123782;27;20465;-70
2022/11/16 02:37:38;;;;;;;17.13;15.87;;;11.30;99.90;;;;;;5117261;27;20460;-69
2022/11/16 02:40:11;;;;;;;16.73;15.40;;;11.40;99.90;;;;;;5120797;27;20492;-69
2022/11/16 02:42:44;;;;;;;17.53;16.23;;;11.40;99.90;;;;;;5113426;27;20484;-70
2022/11/16 02:45:17;;;;;;;17.40;16.20;;;11.30;99.90;;;;;;5117486;27;20922;-69
2022/11/16 02:47:46;;;;;;;18.10;16.30;;;11.40;99.90;;;;;;5112307;27;20522;-70
2022/11/16 02:50:18;;;;;;;18.80;17.00;;;11.40;99.90;;;;;;5117606;27;20471;-68
2022/11/16 02:52:45;;;;;;;17.77;16.17;;;11.40;99.90;;;;;;5122546;27;20572;-69
2022/11/16 02:55:13;;;;;;;18.13;16.57;;;11.40;99.90;;;;;;5114065;27;20460;-70
2022/11/16 02:57:49;;;;;;;18.80;17.30;;;11.40;99.90;;;;;;5114133;27;20456;-69
2022/11/16 03:00:21;;;;;;;21.67;17.20;;;11.40;99.90;;;;;;5119273;27;20510;-70
2022/11/16 03:02:56;;;;;;;18.60;16.90;;;11.40;99.90;;;;;;5108159;28;20468;-69
2022/11/16 03:05:31;;;;;;;18.60;16.97;;;11.40;99.90;;;;;;5116477;27;20487;-70
2022/11/16 03:08:08;;;;;;;18.17;16.57;;;11.30;99.90;;;;;;5113755;27;20749;-70
2022/11/16 03:13:26;;;;;;;20.83;17.07;;;11.30;99.90;;;;;;5124960;27;20454;-69
2022/11/16 03:15:58;;;;;;;18.87;17.37;;;11.30;99.90;;;;;;5116358;27;20981;-69
2022/11/16 03:18:28;;;;;;;19.10;17.43;;;11.30;99.90;;;;;;5118329;27;20473;-69
2022/11/16 03:21:03;;;;;;;18.60;17.37;;;11.40;99.90;;;;;;5115890;28;20874;-70
2022/11/16 03:23:31;;;;;;;19.37;17.63;;;11.40;99.90;;;;;;5121460;27;20460;-71
2022/11/16 03:26:00;;;;;;;18.03;16.70;;;11.40;99.90;;;;;;5122695;28;20476;-70
2022/11/16 03:28:34;;;;;;;20.87;18.67;;;11.40;99.90;;;;;;5119023;28;20461;-68
2022/11/16 03:31:11;;;;;;;17.73;16.30;;;11.40;99.90;;;;;;5121019;28;20455;-69
2022/11/16 03:33:43;;;;;;;18.77;17.33;;;11.40;99.90;;;;;;5111995;28;20463;-68
2022/11/16 03:36:15;;;;;;;18.90;17.40;;;11.40;99.90;;;;;;5119281;28;20509;-69
2022/11/16 03:38:45;;;;;;;19.33;17.70;;;11.40;99.90;;;;;;5117257;28;20486;-70
2022/11/16 03:41:14;;;;;;;17.53;16.10;;;11.50;99.90;;;;;;5116190;28;20549;-70
2022/11/16 03:43:44;;;;;;;16.53;15.23;;;11.50;99.90;;;;;;5119557;28;20461;-69
2022/11/16 03:46:13;;;;;;;15.07;14.10;;;11.40;99.90;;;;;;5119891;28;20455;-69
2022/11/16 03:48:42;;;;;;;14.33;13.43;;;11.40;99.90;;;;;;5124926;28;20456;-69
2022/11/16 03:51:11;;;;;;;13.60;12.73;;;11.40;99.90;;;;;;5118045;28;20463;-69
2022/11/16 03:53:37;;;;;;;14.40;13.13;;;11.50;99.90;;;;;;5113913;28;21104;-68
2022/11/16 03:56:05;;;;;;;13.47;12.57;;;11.50;99.90;;;;;;5118036;28;20537;-69
2022/11/16 03:58:33;;;;;;;11.70;11.10;;;11.50;99.90;;;;;;5120303;28;20457;-69
2022/11/16 04:01:00;;;;;;;13.10;12.40;;;11.60;99.90;;;;;;5110916;27;20460;-69
2022/11/16 04:03:28;;;;;;;15.07;11.40;;;11.60;99.90;;;;;;5119404;28;20526;-69
2022/11/16 04:25:21;;;;;;;10.80;10.27;;;11.50;99.90;;;;;;5114880;28;20447;-69
2022/11/16 04:37:47;;;;;;;11.77;11.27;;;11.30;99.90;;;;;;5111120;28;20954;-69
2022/11/16 04:38:49;;;;;;;12.27;11.57;;;11.20;99.90;;;;;;5119011;27;20782;-70
2022/11/16 04:43:58;;;;;;;12.90;12.20;;;11.20;99.90;;;;;;5121819;27;20464;-69
2022/11/16 04:49:08;;;;;;;14.80;13.90;;;11.10;99.90;;;;;;5117733;27;20977;-68
2022/11/16 04:51:37;;;;;;;14.27;13.47;;;11.00;99.90;;;;;;5115273;27;20815;-69
2022/11/16 04:54:04;;;;;;;17.37;16.20;;;11.00;99.90;;;;;;5120126;27;20875;-68
2022/11/16 04:56:31;;;;;;;15.53;14.63;;;11.10;99.90;;;;;;5118581;27;20478;-68
2022/11/16 04:58:58;;;;;;;16.47;15.27;;;11.10;99.90;;;;;;5118461;27;20507;-68
2022/11/16 05:04:07;;;;;;;15.67;14.53;;;11.30;99.90;;;;;;5117676;27;20567;-68
2022/11/16 05:06:37;;;;;;;14.77;13.97;;;11.30;99.90;;;;;;5119703;27;20461;-69
2022/11/16 05:09:04;;;;;;;14.73;13.43;;;11.30;99.90;;;;;;5114587;27;20477;-69
2022/11/16 05:11:31;;;;;;;13.80;12.97;;;11.20;99.90;;;;;;5124671;27;21058;-67
2022/11/16 05:13:58;;;;;;;13.33;12.57;;;11.20;99.90;;;;;;5117699;27;20460;-69
2022/11/16 05:16:25;;;;;;;13.17;12.47;;;11.20;99.90;;;;;;5120089;27;20465;-68
2022/11/16 05:21:34;;;;;;;12.90;12.20;;;11.20;99.90;;;;;;5113346;27;21123;-68
2022/11/16 05:26:46;;;;;;;13.20;12.50;;;11.20;99.90;;;;;;5123118;27;20811;-69
2022/11/16 05:29:13;;;;;;;12.57;11.87;;;11.20;99.90;;;;;;5116421;27;20464;-68
2022/11/16 05:31:40;;;;;;;12.73;11.97;;;11.20;99.90;;;;;;5120681;27;20505;-69
2022/11/16 05:34:08;;;;;;;12.50;11.70;;;11.10;99.90;;;;;;5119898;27;20456;-69
2022/11/16 05:36:35;;;;;;;12.43;11.53;;;11.10;99.90;;;;;;5121059;27;20986;-70
2022/11/16 05:39:03;;;;;;;13.70;12.57;;;11.00;99.90;;;;;;5118847;27;20460;-68
2022/11/16 05:41:30;;;;;;;13.50;12.50;;;11.00;99.90;;;;;;5113366;27;20453;-67
2022/11/16 05:43:58;;;;;;;13.90;13.10;;;10.90;99.90;;;;;;5117709;27;20474;-68
2022/11/16 05:46:25;;;;;;;13.70;13.00;;;10.80;99.90;;;;;;5117041;27;20484;-68
2022/11/16 05:48:53;;;;;;;14.50;13.70;;;10.70;99.90;;;;;;5116727;27;20971;-67
2022/11/16 05:51:20;;;;;;;14.40;13.30;;;10.60;99.90;;;;;;5117689;27;20448;-68
2022/11/16 05:53:48;;;;;;;14.93;13.83;;;10.50;99.90;;;;;;5115067;27;20878;-70
2022/11/16 05:56:17;;;;;;;15.47;14.23;;;10.50;99.90;;;;;;5118526;27;20460;-67
2022/11/16 05:58:44;;;;;;;15.83;14.60;;;10.40;99.90;;;;;;5118046;27;20456;-68
2022/11/16 06:01:12;;;;;;;16.90;15.63;;;10.30;99.90;;;;;;5115028;27;20811;-68
2022/11/16 06:03:39;;;;;;;16.20;15.13;;;10.30;99.90;;;;;;5122893;27;20472;-67
2022/11/16 06:06:06;;;;;;;16.10;15.00;;;10.20;99.90;;;;;;5120651;27;21006;-68
2022/11/16 06:08:33;;;;;;;16.37;15.27;;;10.20;99.90;;;;;;5119134;27;20485;-67
2022/11/16 06:11:02;;;;;;;15.77;14.70;;;10.10;99.90;;;;;;5120978;27;20858;-68
2022/11/16 06:13:30;;;;;;;15.83;14.93;;;10.00;99.90;;;;;;5117688;27;20556;-69
2022/11/16 06:15:58;;;;;;;16.13;15.13;;;9.90;99.90;;;;;;5113255;27;20506;-68
2022/11/16 06:18:25;;;;;;;15.77;14.87;;;9.90;99.90;;;;;;5120822;27;20454;-69
2022/11/16 06:20:52;;;;;;;16.10;14.80;;;9.80;99.90;;;;;;5115004;27;20966;-68
2022/11/16 06:23:19;;;;;;;15.30;14.20;;;9.80;99.90;;;;;;5116380;27;20483;-68
2022/11/16 06:25:46;;;;;;;15.93;14.30;;;9.70;99.90;;;;;;5116267;27;20485;-70
2022/11/16 06:28:14;;;;;;;15.07;13.90;;;9.70;99.90;;;;;;5120298;27;20529;-68
2022/11/16 06:30:42;;;;;;;15.17;13.37;;;9.60;99.90;;;;;;5117194;27;20462;-67
2022/11/16 06:33:09;;;;;;;14.80;13.57;;;9.60;99.90;;;;;;5125878;27;20471;-69
2022/11/16 06:35:36;;;;;;;15.60;14.40;;;9.50;99.90;;;;;;5116086;27;20468;-67
2022/11/16 06:38:02;;;;;;;15.43;13.93;;;9.50;99.90;;;;;;5118779;27;20457;-69
2022/11/16 06:40:29;;;;;;;14.50;13.70;;;9.40;99.90;;;;;;5116991;27;20489;-70
2022/11/16 06:42:57;;;;;;;17.27;15.50;;;9.40;99.90;;;;;;5108101;27;20949;-68
2022/11/16 06:45:23;;;;;;;15.70;14.70;;;9.30;99.90;;;;;;5109806;27;20452;-68
2022/11/16 06:47:51;;;;;;;15.83;14.73;;;9.30;99.90;;;;;;5116316;27;20538;-67
2022/11/16 06:50:19;;;;;;;17.33;15.53;;;9.20;99.90;;;;;;5117975;27;20870;-68
2022/11/16 06:52:48;;;;;;;17.57;15.80;;;9.20;99.90;;;;;;5113021;27;20452;-70
2022/11/16 06:55:16;;;;;;;16.20;14.67;;;9.20;99.90;;;;;;5118409;27;20461;-70
2022/11/16 06:57:45;;;;;;;17.30;16.10;;;9.10;99.90;;;;;;5112908;27;20855;-68
2022/11/16 07:00:12;;;;;;;16.47;15.07;;;9.00;99.90;;;;;;5116545;27;20492;-68
2022/11/16 07:02:40;;;;;;;17.00;15.47;;;8.90;99.90;;;;;;5108816;27;20974;-68
2022/11/16 07:05:08;;;;;;;20.10;18.30;;;8.90;99.90;;;;;;5116478;27;20488;-67
2022/11/16 07:07:36;;;;;;;18.80;17.60;;;8.80;99.90;;;;;;5119722;27;20831;-67
2022/11/16 07:10:03;;;;;;;20.70;18.40;;;8.70;99.90;;;;;;5117141;27;21075;-68
2022/11/16 07:12:30;;;;;;;18.83;17.30;;;8.60;99.90;;;;;;5114082;27;20465;-68
2022/11/16 07:14:56;;;;;;;19.00;17.30;;;8.50;99.90;;;;;;5116636;27;20534;-67
2022/11/16 07:17:23;;;;;;;21.93;19.90;;;8.60;99.90;;;;;;5116122;27;20465;-67
2022/11/16 07:19:51;;;;;;;20.97;19.07;;;8.60;99.90;;;;;;5118857;27;20480;-67
2022/11/16 07:22:19;;;;;;;21.00;19.10;;;8.50;99.90;;;;;;5116865;27;20460;-69
2022/11/16 07:24:46;;;;;;;18.93;17.53;;;8.40;99.90;;;;;;5115929;28;20471;-69
2022/11/16 07:27:12;;;;;;;20.20;17.73;;;8.50;99.90;;;;;;5113632;28;20456;-67
2022/11/16 07:29:39;;;;;;;18.43;17.03;;;8.50;99.90;;;;;;5118890;28;20821;-67
2022/11/16 07:32:06;;;;;;;20.03;18.10;;;8.40;99.90;;;;;;5112145;28;20510;-69
2022/11/16 07:34:33;;;;;;;18.10;16.70;;;8.30;99.90;;;;;;5115417;28;20956;-68
2022/11/16 07:37:00;;;;;;;18.80;17.50;;;8.30;99.90;;;;;;5107258;28;20469;-68
2022/11/16 07:39:28;;;;;;;19.80;17.90;;;8.30;99.90;;;;;;5118512;28;20852;-69
2022/11/16 07:41:55;;;;;;;18.40;16.70;;;8.40;99.90;;;;;;5109327;28;20480;-68
2022/11/16 07:44:22;;;;;;;17.97;16.40;;;8.50;99.90;;;;;;5119717;28;20468;-67
2022/11/16 07:46:48;;;;;;;18.60;17.00;;;8.50;99.90;;;;;;5113318;28;20493;-67
2022/11/16 07:49:17;;;;;;;19.33;17.30;;;8.60;99.90;;;;;;5115474;28;20506;-66
2022/11/16 07:51:44;;;;;;;19.07;17.57;;;8.50;99.90;;;;;;5112938;28;20468;-68
2022/11/16 07:54:12;;;;;;;17.30;16.30;;;8.50;99.90;;;;;;5113768;28;20924;-69
2022/11/16 07:56:40;;;;;;;23.43;20.30;;;8.60;99.90;;;;;;5112770;28;20464;-67
2022/11/16 07:59:07;;;;;;;35.37;26.87;;;8.60;99.90;;;;;;5112077;27;20468;-69
2022/11/16 08:01:34;;;;;;;28.77;23.20;;;8.60;99.90;;;;;;5109530;27;20496;-69
2022/11/16 08:04:01;;;;;;;17.80;16.53;;;8.70;99.90;;;;;;5108857;27;20465;-67
2022/11/16 08:06:29;;;;;;;19.67;17.63;;;8.70;99.90;;;;;;5100399;28;20464;-68
2022/11/16 08:08:57;;;;;;;19.97;17.57;;;8.70;99.90;;;;;;5109099;27;20469;-68
2022/11/16 08:11:25;;;;;;;18.60;17.10;;;8.80;99.90;;;;;;5117000;27;20884;-68
2022/11/16 08:13:53;;;;;;;25.80;23.07;;;8.80;99.90;;;;;;5116595;27;20970;-68
2022/11/16 08:16:22;;;;;;;20.70;18.80;;;8.90;99.90;;;;;;5115999;27;20492;-68
2022/11/16 08:18:49;;;;;;;19.30;17.77;;;8.90;99.90;;;;;;5119238;27;20481;-69
2022/11/16 08:21:17;;;;;;;29.30;22.43;;;9.00;99.90;;;;;;5112188;27;20488;-69
2022/11/16 08:23:44;;;;;;;23.97;20.60;;;9.10;99.90;;;;;;5115934;27;20479;-70
2022/11/16 08:26:14;;;;;;;28.70;23.83;;;9.30;99.90;;;;;;5114820;27;20974;-70
2022/11/16 08:28:42;;;;;;;40.47;30.30;;;9.40;99.90;;;;;;5113222;27;21508;-68
2022/11/16 08:31:13;;;;;;;37.60;28.17;;;9.60;99.90;;;;;;5116735;27;20460;-68
2022/11/16 08:33:40;;;;;;;20.03;18.03;;;9.70;99.90;;;;;;5118491;27;20517;-68
2022/11/16 08:36:11;;;;;;;21.50;19.70;;;9.80;99.90;;;;;;5118116;27;20457;-68
2022/11/16 08:38:39;;;;;;;18.40;16.50;;;9.90;99.90;;;;;;5118583;27;20950;-68
2022/11/16 08:41:06;;;;;;;18.23;16.53;;;10.00;99.90;;;;;;5123586;27;20493;-71
2022/11/16 08:43:34;;;;;;;16.47;15.00;;;10.10;99.90;;;;;;5119527;27;20464;-69
2022/11/16 08:46:01;;;;;;;18.27;15.90;;;10.20;99.90;;;;;;5126323;27;20563;-68
2022/11/16 08:48:30;;;;;;;16.40;14.73;;;10.40;99.90;;;;;;5115052;27;20468;-68
2022/11/16 08:51:03;;;;;;;16.97;15.27;;;10.50;99.90;;;;;;5120174;27;20466;-69
2022/11/16 08:53:30;;;;;;;19.10;17.40;;;10.60;99.90;;;;;;5113959;27;20947;-69
2022/11/16 08:56:02;;;;;;;15.63;14.00;;;10.70;99.90;;;;;;5114534;27;20465;-68
2022/11/16 08:58:29;;;;;;;20.00;13.83;;;10.80;99.90;;;;;;5119271;27;20461;-68
2022/11/16 09:00:58;;;;;;;19.63;14.33;;;11.00;99.90;;;;;;5109703;27;20489;-70
2022/11/16 09:03:25;;;;;;;14.00;12.80;;;11.10;99.90;;;;;;5108793;27;20469;-68
2022/11/16 09:05:54;;;;;;;16.97;12.70;;;11.00;99.90;;;;;;5109901;27;20496;-70
2022/11/16 09:08:20;;;;;;;13.90;12.70;;;11.00;99.90;;;;;;5111657;27;20463;-68
2022/11/16 09:10:47;;;;;;;15.37;12.03;;;11.20;99.90;;;;;;5117006;27;20526;-68
2022/11/16 09:13:14;;;;;;;17.50;12.60;;;11.30;99.90;;;;;;5114193;27;20720;-68
2022/11/16 09:15:41;;;;;;;18.03;12.53;;;11.30;99.90;;;;;;5112363;27;20452;-68
2022/11/16 09:18:07;;;;;;;14.30;12.90;;;11.40;99.90;;;;;;5116133;27;20457;-68
2022/11/16 09:20:34;;;;;;;14.43;13.03;;;11.30;99.90;;;;;;5106360;27;21029;-68
2022/11/16 09:23:02;;;;;;;15.37;13.80;;;11.30;99.90;;;;;;5109853;27;20545;-67
2022/11/16 09:25:30;;;;;;;22.10;13.43;;;11.40;99.90;;;;;;5114786;27;20803;-67
2022/11/16 09:27:57;;;;;;;16.40;13.57;;;11.40;99.90;;;;;;5112143;27;20463;-69
2022/11/16 09:30:23;;;;;;;15.00;13.30;;;11.40;99.90;;;;;;5111792;27;20543;-68
2022/11/16 09:32:50;;;;;;;17.37;12.80;;;11.30;99.90;;;;;;5111342;27;21018;-68
2022/11/16 09:35:19;;;;;;;14.83;13.23;;;11.30;99.90;;;;;;5106427;27;20484;-70
2022/11/16 09:37:46;;;;;;;14.90;13.90;;;11.30;99.90;;;;;;5118823;27;20963;-68
2022/11/16 09:40:14;;;;;;;13.63;12.63;;;11.30;99.90;;;;;;5109875;27;20476;-68
2022/11/16 09:42:53;;;;;;;13.73;12.63;;;11.30;99.90;;;;;;5114921;27;20899;-67
2022/11/16 09:45:28;;;;;;;14.53;13.30;;;11.30;99.90;;;;;;5110675;27;20960;-68
2022/11/16 09:48:00;;;;;;;18.30;13.00;;;11.40;99.90;;;;;;5113421;27;20959;-68
2022/11/16 09:50:33;;;;;;;13.23;12.33;;;11.50;99.90;;;;;;5110907;27;20465;-69
2022/11/16 09:53:13;;;;;;;12.30;11.37;;;11.50;99.90;;;;;;5113965;27;20510;-69
2022/11/16 09:55:47;;;;;;;12.57;11.57;;;11.50;99.90;;;;;;5116516;27;20528;-68
2022/11/16 09:58:17;;;;;;;13.90;12.60;;;11.40;99.90;;;;;;5104677;27;20471;-69
2022/11/16 10:00:50;;;;;;;13.47;12.27;;;11.50;99.90;;;;;;5115739;27;20468;-69
2022/11/16 10:03:18;;;;;;;13.90;12.80;;;11.40;99.90;;;;;;5113116;27;20548;-68
2022/11/16 10:05:52;;;;;;;13.63;12.37;;;11.40;99.90;;;;;;5117660;27;20485;-69
2022/11/16 10:08:26;;;;;;;13.43;12.33;;;11.40;99.90;;;;;;5114246;27;20902;-68
2022/11/16 10:11:07;;;;;;;13.60;12.70;;;11.50;99.90;;;;;;5112501;27;20463;-68
2022/11/16 10:13:47;;;;;;;14.00;12.90;;;11.50;99.90;;;;;;5118912;27;20472;-68
2022/11/16 10:16:21;;;;;;;14.57;13.13;;;11.50;99.90;;;;;;5118004;27;20465;-68
2022/11/16 10:18:56;;;;;;;13.03;12.20;;;11.60;99.90;;;;;;5109163;27;21285;-69
2022/11/16 10:21:43;;;;;;;14.10;12.90;;;11.60;99.90;;;;;;5114256;27;20618;-69
2022/11/16 10:24:35;;;;;;;14.03;13.07;;;11.60;99.90;;;;;;5120214;27;20471;-68
2022/11/16 10:27:22;;;;;;;13.03;12.30;;;11.60;99.90;;;;;;5116079;27;21322;-68
2022/11/16 10:30:01;;;;;;;14.07;13.03;;;11.60;99.90;;;;;;5116555;27;20951;-68
2022/11/16 10:32:30;;;;;;;14.50;13.50;;;11.70;99.90;;;;;;5122196;27;20460;-68
2022/11/16 10:35:04;;;;;;;13.90;13.00;;;11.80;99.90;;;;;;5118725;27;20517;-68
2022/11/16 10:37:35;;;;;;;14.63;13.40;;;11.80;99.90;;;;;;5115501;27;20876;-68
2022/11/16 10:40:10;;;;;;;14.80;13.80;;;12.00;99.90;;;;;;5113636;27;20484;-68
2022/11/16 10:42:39;;;;;;;14.43;13.23;;;12.40;99.90;;;;;;5118443;27;20516;-69
2022/11/16 10:45:15;;;;;;;15.47;14.37;;;12.90;99.90;;;;;;5113212;27;20980;-68
2022/11/16 10:47:49;;;;;;;15.90;14.70;;;13.60;99.90;;;;;;5107204;27;21048;-69
2022/11/16 10:50:31;;;;;;;16.17;15.20;;;14.20;99.90;;;;;;5123933;27;20560;-68
2022/11/16 10:52:58;;;;;;;16.60;15.40;;;14.70;99.90;;;;;;5121971;27;20452;-69
2022/11/16 10:55:27;;;;;;;18.40;16.90;;;14.90;99.90;;;;;;5116036;27;20855;-68
2022/11/16 10:57:57;;;;;;;18.90;16.13;;;15.10;99.90;;;;;;5118409;27;20464;-68
2022/11/16 11:00:42;;;;;;;17.00;15.90;;;15.30;99.90;;;;;;5119767;27;20464;-69
2022/11/16 11:03:10;;;;;;;17.30;16.00;;;15.40;99.90;;;;;;5115060;27;20472;-68
2022/11/16 11:05:46;;;;;;;16.90;15.80;;;15.40;99.90;;;;;;5117368;27;20801;-69
2022/11/16 11:08:12;;;;;;;17.30;16.30;;;15.50;99.90;;;;;;5115870;27;20554;-69
2022/11/16 11:10:40;;;;;;;16.17;15.27;;;15.90;99.90;;;;;;5110019;27;20801;-70
2022/11/16 11:13:22;;;;;;;16.83;15.20;;;16.00;99.90;;;;;;5116198;27;20483;-70
2022/11/16 11:15:50;;;;;;;16.70;15.70;;;16.00;99.90;;;;;;5111681;27;20472;-68
2022/11/16 11:18:24;;;;;;;18.43;15.97;;;16.20;99.90;;;;;;5113756;27;20462;-69
2022/11/16 11:20:53;;;;;;;15.97;14.90;;;16.30;99.90;;;;;;5107416;27;20481;-69
2022/11/16 11:23:24;;;;;;;17.10;15.80;;;16.50;99.90;;;;;;5113931;27;20506;-69
2022/11/16 11:25:53;;;;;;;17.57;16.13;;;16.20;99.90;;;;;;5111294;28;20912;-70
2022/11/16 11:28:26;;;;;;;16.17;15.17;;;15.90;99.90;;;;;;5113737;28;20464;-70
2022/11/16 11:31:00;;;;;;;15.80;14.80;;;16.00;99.90;;;;;;5116475;28;20463;-68
2022/11/16 11:33:29;;;;;;;16.00;15.00;;;15.80;99.90;;;;;;5111886;28;20878;-69
2022/11/16 11:36:00;;;;;;;16.57;15.47;;;15.90;99.90;;;;;;5116953;28;20867;-69
2022/11/16 11:38:27;;;;;;;15.97;15.07;;;16.20;99.90;;;;;;5121758;28;20460;-69
2022/11/16 11:40:58;;;;;;;15.43;14.63;;;16.40;99.90;;;;;;5119739;28;20484;-70
2022/11/16 11:43:27;;;;;;;17.00;15.83;;;16.40;99.90;;;;;;5117674;28;20460;-69
2022/11/16 11:46:02;;;;;;;16.90;15.43;;;15.90;99.90;;;;;;5117082;27;20982;-69
2022/11/16 11:48:36;;;;;;;16.90;15.70;;;15.60;99.90;;;;;;5126468;27;20555;-69
2022/11/16 11:51:10;;;;;;;16.73;15.57;;;15.20;99.90;;;;;;5115361;27;20464;-70
2022/11/16 11:53:54;;;;;;;15.60;14.70;;;15.60;99.90;;;;;;5120473;27;20466;-71
2022/11/16 11:56:23;;;;;;;16.73;15.43;;;16.00;99.90;;;;;;5117729;27;20459;-70
2022/11/16 11:58:51;;;;;;;16.60;15.57;;;16.80;99.90;;;;;;5117257;27;20464;-71
2022/11/16 12:01:50;;;;;;;17.63;16.23;;;17.00;99.90;;;;;;5119172;27;20484;-69
2022/11/16 12:04:46;;;;;;;16.67;15.67;;;16.90;99.90;;;;;;5115254;27;20479;-70
2022/11/16 12:07:23;;;;;;;17.13;16.07;;;16.50;99.90;;;;;;5121100;27;20526;-69
2022/11/16 12:09:55;;;;;;;17.47;15.77;;;16.40;99.90;;;;;;5111364;27;20523;-71
2022/11/16 12:12:36;;;;;;;16.80;15.80;;;16.10;99.90;;;;;;5122110;27;20456;-70
2022/11/16 12:15:22;;;;;;;16.87;15.70;;;16.10;99.90;;;;;;5118036;27;20469;-69
2022/11/16 12:17:58;;;;;;;18.37;16.87;;;16.00;99.90;;;;;;5122488;27;20501;-69
2022/11/16 12:20:35;;;;;;;18.10;16.60;;;16.20;99.90;;;;;;5113407;27;20456;-69
2022/11/16 12:23:41;;;;;;;17.30;16.10;;;16.20;99.90;;;;;;5119316;27;20483;-68
2022/11/16 12:26:19;;;;;;;17.80;16.40;;;16.20;99.90;;;;;;5119079;27;20452;-69
2022/11/16 12:28:58;;;;;;;17.97;16.63;;;16.00;99.90;;;;;;5114838;27;20970;-69
2022/11/16 12:31:43;;;;;;;17.83;16.10;;;16.10;99.90;;;;;;5117373;27;21295;-70
2022/11/16 12:34:18;;;;;;;19.33;17.70;;;16.60;99.90;;;;;;5119086;27;20453;-69
2022/11/16 12:36:56;;;;;;;17.40;16.00;;;17.40;99.90;;;;;;5112113;27;20464;-69
2022/11/16 12:39:28;;;;;;;17.63;16.23;;;17.80;99.90;;;;;;5118003;27;20504;-69
2022/11/16 12:42:16;;;;;;;18.20;16.47;;;18.00;99.90;;;;;;5119225;27;20498;-69
2022/11/16 12:45:15;;;;;;;16.93;15.67;;;18.30;99.90;;;;;;5113976;27;20692;-71
2022/11/16 12:47:57;;;;;;;17.17;16.10;;;18.50;99.90;;;;;;5118183;27;20856;-69
2022/11/16 12:50:42;;;;;;;17.57;16.40;;;18.10;99.90;;;;;;5117153;27;20534;-70
2022/11/16 12:53:25;;;;;;;17.20;16.10;;;17.70;99.90;;;;;;5115335;27;20795;-70
2022/11/16 12:56:01;;;;;;;17.93;16.67;;;16.90;99.90;;;;;;5112596;27;20465;-69
2022/11/16 12:58:37;;;;;;;17.40;16.00;;;16.60;99.90;;;;;;5116845;27;20456;-69
2022/11/16 13:01:14;;;;;;;17.50;16.23;;;17.30;99.90;;;;;;5119029;27;20796;-69
2022/11/16 13:03:47;;;;;;;16.37;15.47;;;17.70;99.90;;;;;;5118004;27;20551;-69
2022/11/16 13:06:19;;;;;;;16.70;15.70;;;18.10;99.90;;;;;;5115951;27;20456;-69
2022/11/16 13:08:54;;;;;;;17.03;16.03;;;18.50;99.90;;;;;;5115135;27;20994;-71
2022/11/16 13:11:25;;;;;;;16.70;15.63;;;18.50;99.90;;;;;;5119055;27;21157;-68
2022/11/16 13:13:56;;;;;;;17.30;16.20;;;18.70;99.90;;;;;;5120906;27;20461;-69
2022/11/16 13:16:24;;;;;;;17.00;16.00;;;18.90;99.90;;;;;;5116996;27;20540;-69
2022/11/16 13:18:54;;;;;;;16.27;15.37;;;18.90;99.90;;;;;;5121629;27;21038;-69
2022/11/16 13:21:33;;;;;;;16.57;15.40;;;18.70;99.90;;;;;;5107017;27;20465;-69
2022/11/16 13:24:15;;;;;;;17.03;15.93;;;18.50;99.90;;;;;;5116070;27;20472;-70
2022/11/16 13:26:52;;;;;;;16.40;15.50;;;18.50;99.90;;;;;;5119561;27;20456;-70
2022/11/16 13:29:29;;;;;;;16.30;15.23;;;18.30;99.90;;;;;;5112986;27;20594;-69
2022/11/16 13:32:02;;;;;;;17.27;16.17;;;18.20;99.90;;;;;;5115197;27;20465;-69
2022/11/16 13:34:33;;;;;;;16.40;15.50;;;17.80;99.90;;;;;;5118802;27;20962;-70